sensor_id;sensor_type;location;lat;lon;timestamp;pressure;altitude;pressure_sealevel;temperature;humidity
35224;BME280;21367;51.930;8.112;2023-07-22T00:04:41;100740.75;;;13.51;100.00
35224;BME280;21367;51.930;8.112;2023-07-22T00:09:44;100737.13;;;13.46;100.00
35224;BME280;21367;51.930;8.112;2023-07-22T00:14:49;100737.16;;;13.47;100.00
35224;BME280;21367;51.930;8.112;2023-07-22T00:19:56;100732.84;;;13.46;100.00
35224;BME280;21367;51.930;8.112;2023-07-22T00:25:00;100733.34;;;13.63;100.00
35224;BME280;21367;51.930;8.112;2023-07-22T00:30:06;100724.81;;;13.65;100.00
35224;BME280;21367;51.930;8.112;2023-07-22T00:35:12;100735.72;;;13.57;100.00
35224;BME280;21367;51.930;8.112;2023-07-22T00:40:16;100730.53;;;13.55;100.00
35224;BME280;21367;51.930;8.112;2023-07-22T00:45:20;100717.50;;;13.24;100.00
35224;BME280;21367;51.930;8.112;2023-07-22T00:50:26;100718.41;;;13.53;100.00
35224;BME280;21367;51.930;8.112;2023-07-22T00:55:32;100710.66;;;13.53;100.00
35224;BME280;21367;51.930;8.112;2023-07-22T01:00:36;100716.38;;;13.42;100.00
35224;BME280;21367;51.930;8.112;2023-07-22T01:05:42;100710.00;;;13.31;100.00
35224;BME280;21367;51.930;8.112;2023-07-22T01:10:48;100700.34;;;13.53;100.00
35224;BME280;21367;51.930;8.112;2023-07-22T01:15:51;100696.94;;;13.54;100.00
35224;BME280;21367;51.930;8.112;2023-07-22T01:20:58;100698.06;;;13.35;100.00
35224;BME280;21367;51.930;8.112;2023-07-22T01:26:04;100697.53;;;13.45;100.00
35224;BME280;21367;51.930;8.112;2023-07-22T01:31:08;100686.28;;;13.43;100.00
35224;BME280;21367;51.930;8.112;2023-07-22T01:36:12;100693.38;;;13.50;100.00
35224;BME280;21367;51.930;8.112;2023-07-22T01:41:18;100701.16;;;13.52;100.00
35224;BME280;21367;51.930;8.112;2023-07-22T01:46:22;100699.66;;;13.30;100.00
35224;BME280;21367;51.930;8.112;2023-07-22T01:51:26;100695.84;;;13.47;100.00
35224;BME280;21367;51.930;8.112;2023-07-22T01:56:32;100697.09;;;13.60;100.00
35224;BME280;21367;51.930;8.112;2023-07-22T02:01:36;100695.53;;;13.65;100.00
35224;BME280;21367;51.930;8.112;2023-07-22T02:06:40;100703.38;;;13.68;100.00
35224;BME280;21367;51.930;8.112;2023-07-22T02:11:48;100695.16;;;13.53;100.00
35224;BME280;21367;51.930;8.112;2023-07-22T02:16:51;100701.34;;;13.58;100.00
35224;BME280;21367;51.930;8.112;2023-07-22T02:21:55;100702.16;;;13.57;100.00
35224;BME280;21367;51.930;8.112;2023-07-22T02:27:01;100694.50;;;13.60;100.00
35224;BME280;21367;51.930;8.112;2023-07-22T02:32:06;100696.09;;;13.55;100.00
35224;BME280;21367;51.930;8.112;2023-07-22T02:37:10;100700.50;;;13.59;100.00
35224;BME280;21367;51.930;8.112;2023-07-22T02:42:16;100698.09;;;13.63;100.00
35224;BME280;21367;51.930;8.112;2023-07-22T02:47:19;100693.50;;;13.55;100.00
35224;BME280;21367;51.930;8.112;2023-07-22T02:52:23;100692.25;;;13.71;100.00
35224;BME280;21367;51.930;8.112;2023-07-22T02:57:29;100702.31;;;13.61;100.00
35224;BME280;21367;51.930;8.112;2023-07-22T03:02:33;100693.72;;;13.62;100.00
35224;BME280;21367;51.930;8.112;2023-07-22T03:07:38;100694.97;;;13.75;100.00
35224;BME280;21367;51.930;8.112;2023-07-22T03:12:44;100699.13;;;13.70;100.00
35224;BME280;21367;51.930;8.112;2023-07-22T03:17:47;100700.59;;;13.62;100.00
35224;BME280;21367;51.930;8.112;2023-07-22T03:22:51;100702.50;;;13.68;100.00
35224;BME280;21367;51.930;8.112;2023-07-22T03:27:58;100704.13;;;13.64;100.00
35224;BME280;21367;51.930;8.112;2023-07-22T03:33:03;100709.66;;;13.76;100.00
35224;BME280;21367;51.930;8.112;2023-07-22T03:38:07;100711.75;;;13.89;100.00
35224;BME280;21367;51.930;8.112;2023-07-22T03:43:13;100709.56;;;13.73;100.00
35224;BME280;21367;51.930;8.112;2023-07-22T03:48:16;100708.03;;;13.80;100.00
35224;BME280;21367;51.930;8.112;2023-07-22T03:53:20;100714.53;;;13.67;100.00
35224;BME280;21367;51.930;8.112;2023-07-22T03:58:26;100715.81;;;13.81;100.00
35224;BME280;21367;51.930;8.112;2023-07-22T04:03:30;100715.69;;;13.77;100.00
35224;BME280;21367;51.930;8.112;2023-07-22T04:08:34;100716.75;;;13.85;100.00
35224;BME280;21367;51.930;8.112;2023-07-22T04:13:40;100720.63;;;13.99;100.00
35224;BME280;21367;51.930;8.112;2023-07-22T04:18:44;100723.31;;;14.02;100.00
35224;BME280;21367;51.930;8.112;2023-07-22T04:23:48;100727.88;;;14.12;100.00
35224;BME280;21367;51.930;8.112;2023-07-22T04:28:54;100730.09;;;13.99;100.00
35224;BME280;21367;51.930;8.112;2023-07-22T04:33:58;100734.66;;;14.07;100.00
35224;BME280;21367;51.930;8.112;2023-07-22T04:39:01;100739.75;;;14.04;100.00
35224;BME280;21367;51.930;8.112;2023-07-22T04:44:10;100734.91;;;14.17;100.00
35224;BME280;21367;51.930;8.112;2023-07-22T04:49:13;100734.06;;;14.18;100.00
35224;BME280;21367;51.930;8.112;2023-07-22T04:54:18;100738.97;;;14.39;100.00
35224;BME280;21367;51.930;8.112;2023-07-22T04:59:24;100730.75;;;14.53;100.00
35224;BME280;21367;51.930;8.112;2023-07-22T05:04:28;100735.34;;;14.64;100.00
35224;BME280;21367;51.930;8.112;2023-07-22T05:09:31;100731.19;;;14.70;100.00
35224;BME280;21367;51.930;8.112;2023-07-22T05:14:37;100743.19;;;14.67;99.71
35224;BME280;21367;51.930;8.112;2023-07-22T05:19:41;100737.88;;;14.62;99.95
35224;BME280;21367;51.930;8.112;2023-07-22T05:24:45;100744.69;;;14.58;100.00
35224;BME280;21367;51.930;8.112;2023-07-22T05:29:51;100740.88;;;14.79;99.82
35224;BME280;21367;51.930;8.112;2023-07-22T05:34:55;100744.53;;;14.54;100.00
35224;BME280;21367;51.930;8.112;2023-07-22T05:40:00;100753.19;;;14.88;99.61
35224;BME280;21367;51.930;8.112;2023-07-22T05:45:07;100756.44;;;15.14;97.28
35224;BME280;21367;51.930;8.112;2023-07-22T05:50:14;100750.00;;;15.33;96.84
35224;BME280;21367;51.930;8.112;2023-07-22T05:55:18;100753.88;;;15.52;95.85
35224;BME280;21367;51.930;8.112;2023-07-22T06:00:24;100753.81;;;15.48;96.17
35224;BME280;21367;51.930;8.112;2023-07-22T06:05:28;100751.53;;;15.26;97.70
35224;BME280;21367;51.930;8.112;2023-07-22T06:10:31;100751.28;;;15.53;96.66
35224;BME280;21367;51.930;8.112;2023-07-22T06:15:38;100764.63;;;15.32;99.69
35224;BME280;21367;51.930;8.112;2023-07-22T06:20:41;100758.34;;;15.60;95.20
35224;BME280;21367;51.930;8.112;2023-07-22T06:25:45;100756.84;;;15.68;95.61
35224;BME280;21367;51.930;8.112;2023-07-22T06:30:51;100754.75;;;15.91;93.52
35224;BME280;21367;51.930;8.112;2023-07-22T06:35:55;100756.69;;;15.26;94.13
35224;BME280;21367;51.930;8.112;2023-07-22T06:40:59;100755.66;;;15.92;93.02
35224;BME280;21367;51.930;8.112;2023-07-22T06:46:06;100751.41;;;15.58;93.05
35224;BME280;21367;51.930;8.112;2023-07-22T06:51:09;100756.97;;;16.14;90.20
35224;BME280;21367;51.930;8.112;2023-07-22T06:56:13;100763.34;;;16.31;90.25
35224;BME280;21367;51.930;8.112;2023-07-22T07:01:19;100764.34;;;16.38;89.69
35224;BME280;21367;51.930;8.112;2023-07-22T07:06:22;100763.75;;;16.09;91.82
35224;BME280;21367;51.930;8.112;2023-07-22T07:11:27;100765.13;;;16.35;90.04
35224;BME280;21367;51.930;8.112;2023-07-22T07:16:34;100761.41;;;16.66;88.92
35224;BME280;21367;51.930;8.112;2023-07-22T07:21:38;100757.22;;;17.25;87.34
35224;BME280;21367;51.930;8.112;2023-07-22T07:26:42;100756.88;;;17.02;89.87
35224;BME280;21367;51.930;8.112;2023-07-22T07:31:48;100758.47;;;17.50;88.57
35224;BME280;21367;51.930;8.112;2023-07-22T07:36:51;100756.28;;;17.18;86.53
35224;BME280;21367;51.930;8.112;2023-07-22T07:41:55;100753.78;;;17.24;87.12
35224;BME280;21367;51.930;8.112;2023-07-22T07:47:01;100757.16;;;17.78;86.33
35224;BME280;21367;51.930;8.112;2023-07-22T07:52:05;100748.25;;;18.27;84.64
35224;BME280;21367;51.930;8.112;2023-07-22T07:57:09;100760.22;;;18.13;83.48
35224;BME280;21367;51.930;8.112;2023-07-22T08:02:15;100764.84;;;17.72;87.78
35224;BME280;21367;51.930;8.112;2023-07-22T08:07:19;100768.09;;;18.18;83.25
35224;BME280;21367;51.930;8.112;2023-07-22T08:12:22;100758.59;;;18.23;81.66
35224;BME280;21367;51.930;8.112;2023-07-22T08:17:29;100768.88;;;18.14;82.58
35224;BME280;21367;51.930;8.112;2023-07-22T08:22:33;100768.69;;;17.97;84.00
35224;BME280;21367;51.930;8.112;2023-07-22T08:27:36;100764.50;;;18.10;83.96
35224;BME280;21367;51.930;8.112;2023-07-22T08:32:42;100766.28;;;18.14;84.94
35224;BME280;21367;51.930;8.112;2023-07-22T08:37:46;100767.03;;;18.83;82.59
35224;BME280;21367;51.930;8.112;2023-07-22T08:42:50;100773.25;;;18.99;81.64
35224;BME280;21367;51.930;8.112;2023-07-22T08:47:58;100763.09;;;19.29;79.89
35224;BME280;21367;51.930;8.112;2023-07-22T08:53:04;100772.00;;;19.60;78.16
35224;BME280;21367;51.930;8.112;2023-07-22T08:58:09;100773.84;;;19.75;76.49
35224;BME280;21367;51.930;8.112;2023-07-22T09:03:16;100767.78;;;19.79;74.71
35224;BME280;21367;51.930;8.112;2023-07-22T09:08:20;100763.38;;;19.66;73.04
35224;BME280;21367;51.930;8.112;2023-07-22T09:13:25;100764.44;;;20.06;71.67
35224;BME280;21367;51.930;8.112;2023-07-22T09:18:33;100764.59;;;20.55;67.48
35224;BME280;21367;51.930;8.112;2023-07-22T09:23:38;100762.94;;;20.94;67.29
35224;BME280;21367;51.930;8.112;2023-07-22T09:28:49;100762.91;;;20.68;65.19
35224;BME280;21367;51.930;8.112;2023-07-22T09:34:08;100751.47;;;20.36;66.11
35224;BME280;21367;51.930;8.112;2023-07-22T09:39:14;100748.97;;;20.69;64.49
35224;BME280;21367;51.930;8.112;2023-07-22T09:44:18;100751.56;;;21.27;65.82
35224;BME280;21367;51.930;8.112;2023-07-22T09:49:25;100748.97;;;21.24;63.97
35224;BME280;21367;51.930;8.112;2023-07-22T09:54:28;100743.72;;;21.46;61.56
35224;BME280;21367;51.930;8.112;2023-07-22T09:59:32;100729.25;;;22.67;58.71
35224;BME280;21367;51.930;8.112;2023-07-22T10:04:39;100733.28;;;23.12;56.73
35224;BME280;21367;51.930;8.112;2023-07-22T10:09:45;100736.47;;;22.29;57.31
35224;BME280;21367;51.930;8.112;2023-07-22T10:14:51;100715.22;;;22.74;58.06
35224;BME280;21367;51.930;8.112;2023-07-22T10:19:58;100723.34;;;22.38;59.54
35224;BME280;21367;51.930;8.112;2023-07-22T10:25:06;100717.97;;;22.57;57.35
35224;BME280;21367;51.930;8.112;2023-07-22T10:30:12;100707.56;;;22.46;57.13
35224;BME280;21367;51.930;8.112;2023-07-22T10:35:33;100706.78;;;22.30;54.83
35224;BME280;21367;51.930;8.112;2023-07-22T10:40:48;100710.56;;;21.66;56.49
35224;BME280;21367;51.930;8.112;2023-07-22T10:45:54;100707.09;;;21.66;56.28
35224;BME280;21367;51.930;8.112;2023-07-22T10:51:04;100714.16;;;20.98;61.46
35224;BME280;21367;51.930;8.112;2023-07-22T10:56:13;100714.88;;;21.80;58.66
35224;BME280;21367;51.930;8.112;2023-07-22T11:01:24;100700.75;;;22.17;57.79
35224;BME280;21367;51.930;8.112;2023-07-22T11:06:37;100689.59;;;21.74;56.78
35224;BME280;21367;51.930;8.112;2023-07-22T11:11:44;100683.94;;;22.52;55.97
35224;BME280;21367;51.930;8.112;2023-07-22T11:16:48;100679.53;;;22.59;54.96
35224;BME280;21367;51.930;8.112;2023-07-22T11:21:54;100672.75;;;22.30;55.41
35224;BME280;21367;51.930;8.112;2023-07-22T11:26:58;100679.72;;;22.33;55.29
35224;BME280;21367;51.930;8.112;2023-07-22T11:32:03;100681.03;;;23.74;52.29
35224;BME280;21367;51.930;8.112;2023-07-22T11:37:11;100674.00;;;23.77;52.33
35224;BME280;21367;51.930;8.112;2023-07-22T11:42:15;100673.06;;;23.03;53.36
35224;BME280;21367;51.930;8.112;2023-07-22T11:47:28;100681.59;;;23.22;53.00
35224;BME280;21367;51.930;8.112;2023-07-22T11:52:35;100661.09;;;23.58;52.22
35224;BME280;21367;51.930;8.112;2023-07-22T11:57:40;100657.28;;;23.85;50.12
35224;BME280;21367;51.930;8.112;2023-07-22T12:02:43;100666.09;;;23.81;51.08
35224;BME280;21367;51.930;8.112;2023-07-22T12:07:50;100654.38;;;24.05;50.73
35224;BME280;21367;51.930;8.112;2023-07-22T12:12:53;100669.66;;;23.76;51.71
35224;BME280;21367;51.930;8.112;2023-07-22T12:18:00;100661.28;;;24.13;51.62
35224;BME280;21367;51.930;8.112;2023-07-22T12:23:07;100654.66;;;23.85;51.56
35224;BME280;21367;51.930;8.112;2023-07-22T12:28:11;100645.34;;;24.24;50.42
35224;BME280;21367;51.930;8.112;2023-07-22T12:33:16;100642.56;;;24.33;49.78
35224;BME280;21367;51.930;8.112;2023-07-22T12:38:22;100638.31;;;24.79;49.55
35224;BME280;21367;51.930;8.112;2023-07-22T12:43:26;100631.56;;;24.65;50.51
35224;BME280;21367;51.930;8.112;2023-07-22T12:48:29;100629.63;;;24.75;48.43
35224;BME280;21367;51.930;8.112;2023-07-22T12:53:36;100630.72;;;25.11;47.13
35224;BME280;21367;51.930;8.112;2023-07-22T12:58:39;100636.25;;;23.14;52.87
35224;BME280;21367;51.930;8.112;2023-07-22T13:03:43;100623.03;;;25.02;49.04
35224;BME280;21367;51.930;8.112;2023-07-22T13:08:49;100620.22;;;25.10;46.61
35224;BME280;21367;51.930;8.112;2023-07-22T13:13:53;100608.38;;;25.34;47.42
35224;BME280;21367;51.930;8.112;2023-07-22T13:18:57;100605.28;;;25.12;47.71
35224;BME280;21367;51.930;8.112;2023-07-22T13:24:04;100608.03;;;25.07;46.88
35224;BME280;21367;51.930;8.112;2023-07-22T13:29:08;100605.97;;;24.75;48.42
35224;BME280;21367;51.930;8.112;2023-07-22T13:34:12;100600.38;;;24.93;47.11
35224;BME280;21367;51.930;8.112;2023-07-22T13:39:18;100585.56;;;25.76;47.29
35224;BME280;21367;51.930;8.112;2023-07-22T13:44:22;100580.34;;;26.12;45.55
35224;BME280;21367;51.930;8.112;2023-07-22T13:49:26;100572.47;;;25.33;45.73
35224;BME280;21367;51.930;8.112;2023-07-22T13:54:32;100588.09;;;24.46;49.49
35224;BME280;21367;51.930;8.112;2023-07-22T13:59:36;100572.03;;;24.10;49.07
35224;BME280;21367;51.930;8.112;2023-07-22T14:04:40;100573.13;;;23.94;49.68
35224;BME280;21367;51.930;8.112;2023-07-22T14:09:46;100562.69;;;24.46;47.19
35224;BME280;21367;51.930;8.112;2023-07-22T14:14:50;100556.22;;;25.53;45.70
35224;BME280;21367;51.930;8.112;2023-07-22T14:19:53;100571.84;;;24.72;46.80
35224;BME280;21367;51.930;8.112;2023-07-22T14:24:59;100575.69;;;25.02;46.59
35224;BME280;21367;51.930;8.112;2023-07-22T14:30:04;100568.91;;;24.39;47.49
35224;BME280;21367;51.930;8.112;2023-07-22T14:35:08;100568.25;;;24.25;49.02
35224;BME280;21367;51.930;8.112;2023-07-22T14:40:15;100556.34;;;24.06;48.39
35224;BME280;21367;51.930;8.112;2023-07-22T14:45:19;100549.25;;;25.52;46.88
35224;BME280;21367;51.930;8.112;2023-07-22T14:50:22;100539.38;;;26.36;46.29
35224;BME280;21367;51.930;8.112;2023-07-22T14:55:29;100540.88;;;24.88;46.67
35224;BME280;21367;51.930;8.112;2023-07-22T15:00:32;100532.00;;;24.93;46.79
35224;BME280;21367;51.930;8.112;2023-07-22T15:05:36;100536.50;;;24.42;47.08
35224;BME280;21367;51.930;8.112;2023-07-22T15:10:42;100531.19;;;24.45;47.86
35224;BME280;21367;51.930;8.112;2023-07-22T15:15:46;100519.78;;;25.36;46.49
35224;BME280;21367;51.930;8.112;2023-07-22T15:20:50;100515.13;;;25.47;45.70
35224;BME280;21367;51.930;8.112;2023-07-22T15:25:57;100525.03;;;26.12;45.60
35224;BME280;21367;51.930;8.112;2023-07-22T15:31:00;100520.41;;;26.56;43.36
35224;BME280;21367;51.930;8.112;2023-07-22T15:36:04;100518.63;;;26.89;43.95
35224;BME280;21367;51.930;8.112;2023-07-22T15:41:11;100523.28;;;26.80;42.95
35224;BME280;21367;51.930;8.112;2023-07-22T15:46:14;100519.28;;;24.72;46.83
35224;BME280;21367;51.930;8.112;2023-07-22T15:51:18;100507.97;;;26.27;43.91
35224;BME280;21367;51.930;8.112;2023-07-22T15:56:24;100504.66;;;25.46;45.91
35224;BME280;21367;51.930;8.112;2023-07-22T16:01:31;100505.00;;;25.29;46.68
35224;BME280;21367;51.930;8.112;2023-07-22T16:06:35;100489.63;;;25.09;47.31
35224;BME280;21367;51.930;8.112;2023-07-22T16:11:41;100496.66;;;25.08;48.47
35224;BME280;21367;51.930;8.112;2023-07-22T16:16:45;100491.59;;;24.03;50.25
35224;BME280;21367;51.930;8.112;2023-07-22T16:21:49;100503.25;;;24.38;50.05
35224;BME280;21367;51.930;8.112;2023-07-22T16:26:55;100503.97;;;23.98;49.53
35224;BME280;21367;51.930;8.112;2023-07-22T16:31:59;100499.00;;;25.22;49.40
35224;BME280;21367;51.930;8.112;2023-07-22T16:37:03;100499.53;;;24.96;49.60
35224;BME280;21367;51.930;8.112;2023-07-22T16:42:09;100487.81;;;25.14;48.83
35224;BME280;21367;51.930;8.112;2023-07-22T16:47:13;100486.16;;;25.49;47.69
35224;BME280;21367;51.930;8.112;2023-07-22T16:52:17;100494.56;;;25.65;48.86
35224;BME280;21367;51.930;8.112;2023-07-22T16:57:23;100487.03;;;25.07;48.61
35224;BME280;21367;51.930;8.112;2023-07-22T17:02:27;100487.38;;;24.90;49.03
35224;BME280;21367;51.930;8.112;2023-07-22T17:07:30;100489.16;;;24.43;50.88
35224;BME280;21367;51.930;8.112;2023-07-22T17:12:37;100492.34;;;24.11;51.38
35224;BME280;21367;51.930;8.112;2023-07-22T17:17:40;100480.19;;;24.07;51.94
35224;BME280;21367;51.930;8.112;2023-07-22T17:22:44;100478.22;;;22.99;52.46
35224;BME280;21367;51.930;8.112;2023-07-22T17:27:51;100481.31;;;23.30;52.72
35224;BME280;21367;51.930;8.112;2023-07-22T17:32:55;100478.03;;;23.16;54.06
35224;BME280;21367;51.930;8.112;2023-07-22T17:37:58;100470.09;;;23.21;53.32
35224;BME280;21367;51.930;8.112;2023-07-22T17:43:05;100469.84;;;23.38;53.74
35224;BME280;21367;51.930;8.112;2023-07-22T17:48:08;100465.09;;;23.63;54.51
35224;BME280;21367;51.930;8.112;2023-07-22T17:53:12;100468.94;;;23.42;55.33
35224;BME280;21367;51.930;8.112;2023-07-22T17:58:18;100458.47;;;23.39;55.92
35224;BME280;21367;51.930;8.112;2023-07-22T18:03:22;100467.13;;;23.45;55.18
35224;BME280;21367;51.930;8.112;2023-07-22T18:08:26;100457.63;;;23.38;54.96
35224;BME280;21367;51.930;8.112;2023-07-22T18:13:32;100453.78;;;22.99;55.52
35224;BME280;21367;51.930;8.112;2023-07-22T18:18:36;100453.94;;;22.83;55.96
35224;BME280;21367;51.930;8.112;2023-07-22T18:23:39;100459.88;;;22.21;57.26
35224;BME280;21367;51.930;8.112;2023-07-22T18:28:46;100461.50;;;22.31;56.61
35224;BME280;21367;51.930;8.112;2023-07-22T18:33:50;100461.09;;;21.78;56.52
35224;BME280;21367;51.930;8.112;2023-07-22T18:38:53;100463.03;;;21.53;57.39
35224;BME280;21367;51.930;8.112;2023-07-22T18:44:00;100459.69;;;21.22;58.09
35224;BME280;21367;51.930;8.112;2023-07-22T18:49:04;100463.97;;;21.37;59.44
35224;BME280;21367;51.930;8.112;2023-07-22T18:54:07;100466.66;;;21.21;59.31
35224;BME280;21367;51.930;8.112;2023-07-22T18:59:14;100465.81;;;21.15;58.75
35224;BME280;21367;51.930;8.112;2023-07-22T19:04:17;100467.59;;;21.13;60.10
35224;BME280;21367;51.930;8.112;2023-07-22T19:09:21;100476.41;;;20.89;60.69
35224;BME280;21367;51.930;8.112;2023-07-22T19:14:28;100470.34;;;20.79;60.62
35224;BME280;21367;51.930;8.112;2023-07-22T19:19:31;100473.00;;;20.64;61.12
35224;BME280;21367;51.930;8.112;2023-07-22T19:24:35;100475.56;;;20.71;61.28
35224;BME280;21367;51.930;8.112;2023-07-22T19:29:42;100477.38;;;20.60;62.79
35224;BME280;21367;51.930;8.112;2023-07-22T19:34:46;100479.97;;;20.62;63.15
35224;BME280;21367;51.930;8.112;2023-07-22T19:39:50;100480.88;;;20.41;62.95
35224;BME280;21367;51.930;8.112;2023-07-22T19:44:57;100489.53;;;20.66;63.90
35224;BME280;21367;51.930;8.112;2023-07-22T19:50:01;100484.34;;;20.35;64.06
35224;BME280;21367;51.930;8.112;2023-07-22T19:55:05;100482.59;;;20.39;63.80
35224;BME280;21367;51.930;8.112;2023-07-22T20:00:12;100497.41;;;20.27;66.08
35224;BME280;21367;51.930;8.112;2023-07-22T20:05:17;100500.91;;;20.13;64.45
35224;BME280;21367;51.930;8.112;2023-07-22T20:10:20;100519.16;;;19.71;66.07
35224;BME280;21367;51.930;8.112;2023-07-22T20:15:27;100519.84;;;19.26;67.08
35224;BME280;21367;51.930;8.112;2023-07-22T20:20:30;100518.06;;;19.06;67.63
35224;BME280;21367;51.930;8.112;2023-07-22T20:25:34;100524.97;;;19.01;70.06
35224;BME280;21367;51.930;8.112;2023-07-22T20:30:41;100525.84;;;19.08;73.28
35224;BME280;21367;51.930;8.112;2023-07-22T20:35:45;100528.16;;;18.53;76.93
35224;BME280;21367;51.930;8.112;2023-07-22T20:40:48;100529.22;;;18.81;79.70
35224;BME280;21367;51.930;8.112;2023-07-22T20:45:54;100525.78;;;18.91;80.79
35224;BME280;21367;51.930;8.112;2023-07-22T20:50:58;100537.06;;;18.91;82.64
35224;BME280;21367;51.930;8.112;2023-07-22T20:56:02;100541.38;;;18.85;83.24
35224;BME280;21367;51.930;8.112;2023-07-22T21:01:08;100547.41;;;18.75;84.76
35224;BME280;21367;51.930;8.112;2023-07-22T21:06:12;100556.09;;;18.75;86.74
35224;BME280;21367;51.930;8.112;2023-07-22T21:11:15;100561.03;;;18.40;90.18
35224;BME280;21367;51.930;8.112;2023-07-22T21:16:22;100571.53;;;18.55;91.88
35224;BME280;21367;51.930;8.112;2023-07-22T21:21:25;100562.75;;;18.41;94.79
35224;BME280;21367;51.930;8.112;2023-07-22T21:26:29;100568.78;;;18.35;96.67
35224;BME280;21367;51.930;8.112;2023-07-22T21:31:35;100567.78;;;18.18;98.90
35224;BME280;21367;51.930;8.112;2023-07-22T21:36:39;100561.69;;;18.17;99.41
35224;BME280;21367;51.930;8.112;2023-07-22T21:41:43;100559.84;;;18.04;100.00
35224;BME280;21367;51.930;8.112;2023-07-22T21:46:50;100561.56;;;18.02;100.00
35224;BME280;21367;51.930;8.112;2023-07-22T21:51:54;100565.88;;;18.00;100.00
35224;BME280;21367;51.930;8.112;2023-07-22T21:56:57;100561.44;;;17.90;100.00
35224;BME280;21367;51.930;8.112;2023-07-22T22:02:04;100551.78;;;17.79;100.00
35224;BME280;21367;51.930;8.112;2023-07-22T22:07:08;100561.34;;;17.82;100.00
35224;BME280;21367;51.930;8.112;2023-07-22T22:12:12;100555.28;;;17.80;100.00
35224;BME280;21367;51.930;8.112;2023-07-22T22:17:18;100554.44;;;17.84;100.00
35224;BME280;21367;51.930;8.112;2023-07-22T22:22:21;100545.59;;;17.70;100.00
35224;BME280;21367;51.930;8.112;2023-07-22T22:27:25;100549.97;;;17.71;100.00
35224;BME280;21367;51.930;8.112;2023-07-22T22:32:31;100555.09;;;17.66;100.00
35224;BME280;21367;51.930;8.112;2023-07-22T22:37:35;100550.78;;;17.70;100.00
35224;BME280;21367;51.930;8.112;2023-07-22T22:42:38;100535.84;;;17.46;100.00
35224;BME280;21367;51.930;8.112;2023-07-22T22:47:45;100524.59;;;17.51;100.00
35224;BME280;21367;51.930;8.112;2023-07-22T22:52:48;100518.31;;;17.29;100.00
35224;BME280;21367;51.930;8.112;2023-07-22T22:57:52;100503.03;;;17.60;100.00
35224;BME280;21367;51.930;8.112;2023-07-22T23:02:58;100505.38;;;17.34;100.00
35224;BME280;21367;51.930;8.112;2023-07-22T23:08:02;100504.84;;;16.90;100.00
35224;BME280;21367;51.930;8.112;2023-07-22T23:13:06;100506.53;;;16.86;100.00
35224;BME280;21367;51.930;8.112;2023-07-22T23:18:12;100503.47;;;17.19;100.00
35224;BME280;21367;51.930;8.112;2023-07-22T23:23:16;100493.59;;;16.91;100.00
35224;BME280;21367;51.930;8.112;2023-07-22T23:28:21;100492.13;;;17.13;100.00
35224;BME280;21367;51.930;8.112;2023-07-22T23:33:28;100488.66;;;17.10;100.00
35224;BME280;21367;51.930;8.112;2023-07-22T23:38:32;100485.88;;;16.34;100.00
35224;BME280;21367;51.930;8.112;2023-07-22T23:43:36;100481.06;;;16.04;100.00
35224;BME280;21367;51.930;8.112;2023-07-22T23:48:42;100467.22;;;16.60;100.00
35224;BME280;21367;51.930;8.112;2023-07-22T23:53:46;100461.84;;;15.91;100.00
35224;BME280;21367;51.930;8.112;2023-07-22T23:58:50;100456.34;;;16.26;100.00
